Create Tblcommutelog Verified Points Advance Search
| # | Trip ID | Id Commuter | Trip Date | Trip Num | Current Lat | Current Lng | Delta Distance | Current Time | Activity | Activity Confidence | Current Speed | |
|---|---|---|---|---|---|---|---|---|---|---|---|---|
| 69341 | 251002_786026_16514421_0706 | 786026 | (not set) | (not set) | 38.990003622518 | -76.924028411292 | 2.2822 | 2025-10-02 07:22:20 | on_bicycle | 100 | 1.4260552361708 | |
| 69342 | 251002_772509_16419859_0656 | 772509 | (not set) | (not set) | 38.772888 | -76.995764666667 | 13.5829 | 2025-10-02 07:22:20 | still | 33 | 10.92563948966 | |
| 69343 | 251002_786026_16514421_0706 | 786026 | (not set) | (not set) | 38.990003622518 | -76.924028411292 | 2.2822 | 2025-10-02 07:22:20 | on_bicycle | 100 | 1.4260552361708 | |
| 69344 | 251002_784252_16652453_0705 | 784252 | (not set) | (not set) | 39.399339128581 | -77.411425627135 | 5.3293 | 2025-10-02 07:22:22 | in_vehicle | 100 | 16.39292962708 | |
| 69345 | 251002_764846_16510190_0721 | 764846 | (not set) | (not set) | 38.669370116232 | -77.260513753706 | 1.1337 | 2025-10-02 07:22:24 | unknown | 100 | 15.539084642413 | |
| 69346 | 251002_738572_16489587_0702 | 738572 | (not set) | (not set) | 38.943125956764 | -76.881537002077 | 18.4573 | 2025-10-02 07:22:24 | in_vehicle | 100 | 9.249242268456 | |
| 69347 | 251002_786638_16514715_0646 | 786638 | (not set) | (not set) | 39.173450790047 | -76.633804733355 | 11.419 | 2025-10-02 07:22:24 | in_vehicle | 100 | 5.4717605300097 | |
| 69348 | 251002_789313_16515912_0721 | 789313 | (not set) | (not set) | 38.8187619 | -77.4382666 | 0.2867 | 2025-10-02 07:22:24 | in_vehicle | 100 | 5.5745795595769 | |
| 69349 | 251002_780813_16421763_0708 | 780813 | (not set) | (not set) | 38.774237871205 | -77.248696011784 | 3.1435 | 2025-10-02 07:22:24 | in_vehicle | 100 | -0.44703925898772 | |
| 69350 | 251002_780813_16421763_0708 | 780813 | (not set) | (not set) | 38.774237871205 | -77.248696011784 | 3.1435 | 2025-10-02 07:22:24 | in_vehicle | 100 | -0.44703925898772 | |
| 69351 | 251002_779784_6428227_0640 | 779784 | (not set) | (not set) | 39.076026766667 | -77.001986783333 | 23.6462 | 2025-10-02 07:22:24 | in_vehicle | 100 | 0.022351962949386 | |
| 69352 | 251002_784608_16458763_0656 | 784608 | (not set) | (not set) | 38.806558345261 | -77.061747001757 | 12.0504 | 2025-10-02 07:22:26 | in_vehicle | 100 | 2.2039035468095 | |
| 69353 | 251002_788381_16460160_0718 | 788381 | (not set) | (not set) | 38.863573405393 | -76.938866792836 | 1.3965 | 2025-10-02 07:22:27 | in_vehicle | 100 | 7.4432036621456 | |
| 69354 | 251002_778451_16430742_0708 | 778451 | (not set) | (not set) | 38.95156462863 | -77.002339257851 | 2.4439 | 2025-10-02 07:22:26 | in_vehicle | 100 | 5.391293463392 | |
| 69355 | 251002_778451_16430742_0708 | 778451 | (not set) | (not set) | 38.95156462863 | -77.002339257851 | 2.4439 | 2025-10-02 07:22:26 | in_vehicle | 100 | 5.391293463392 | |
| 69356 | 251002_778451_16430742_0708 | 778451 | (not set) | (not set) | 38.95156462863 | -77.002339257851 | 2.4439 | 2025-10-02 07:22:26 | in_vehicle | 100 | 5.391293463392 | |
| 69357 | 251002_762844_16460442_0638 | 762844 | (not set) | (not set) | 39.044024373437 | -76.741425931322 | 21.8865 | 2025-10-02 07:22:27 | in_vehicle | 100 | 22.754298282475 | |
| 69358 | 251002_778451_16430742_0708 | 778451 | (not set) | (not set) | 38.95156462863 | -77.002339257851 | 2.4439 | 2025-10-02 07:22:26 | in_vehicle | 100 | 5.391293463392 | |
| 69359 | 251002_778451_16430742_0708 | 778451 | (not set) | (not set) | 38.95156462863 | -77.002339257851 | 2.4439 | 2025-10-02 07:22:26 | in_vehicle | 100 | 5.391293463392 | |
| 69360 | 251002_778451_16430742_0708 | 778451 | (not set) | (not set) | 38.95156462863 | -77.002339257851 | 2.4439 | 2025-10-02 07:22:26 | in_vehicle | 100 | 5.391293463392 |